ADDS METAR Data INFO
IDs: Format: Raw Decoded Include TAF

Data at: 0352 UTC 18 Oct 2017

KJBR 180253Z AUTO 10/07 A3023 RMK AO2 SLP236 T01000067 51007 PWINO $
KJBR 180153Z AUTO 00000KT 10SM CLR 11/07 A3023 RMK AO2 SLP235 T01060072
KJBR 180053Z AUTO 07003KT 10SM CLR 12/07 A3022 RMK AO2 SLP234 T01220072
KJBR 172353Z AUTO 00000KT 10SM CLR 14/07 A3021 RMK AO2 SLP230 T01440067 10217 20144 56007
KJBR 172253Z AUTO 15004KT 10SM CLR 20/06 A3021 RMK AO2 SLP229 T02000056
KJBR 172153Z AUTO 17004KT 10SM CLR 21/04 A3022 RMK AO2 SLP231 T02110039
KJBR 172053Z AUTO 08003KT 10SM CLR 22/06 A3023 RMK AO2 SLP236 T02170056 56028
KJBR 172046Z AUTO 11004KT 8SM FEW002 21/05 A3023 RMK AO2 T02110050
KJBR 171953Z AUTO 12003KT 10SM CLR 21/06 A3025 RMK AO2 SLP241 T02060056
KJBR 171853Z AUTO 00000KT 10SM CLR 21/07 A3027 RMK AO2 SLP251 T02060067
KJBR 171753Z AUTO 00000KT 10SM CLR 18/06 A3031 RMK AO2 SLP264 T01830061 10194 20050 58022
KJBR 171653Z AUTO 12007KT 10SM CLR 18/06 A3034 RMK AO2 SLP274 T01780061
KJBR 171553Z AUTO 10007KT 10SM CLR 17/08 A3037 RMK AO2 SLP283 T01720078
KJBR 171453Z AUTO 12006KT 10SM CLR 14/08 A3038 RMK AO2 SLP287 T01390078 51013
KJBR 171353Z AUTO 04003KT 10SM CLR 12/07 A3038 RMK AO2 SLP286 T01170072
KJBR 171253Z AUTO 00000KT 10SM CLR 06/06 A3035 RMK AO2 SLP278 T00610056 $
KJBR 171153Z AUTO 00000KT 10SM CLR 06/05 A3034 RMK AO2 SLP275 T00560050 10078 20050 51013 $
KJBR 171053Z AUTO 33003KT 10SM CLR 06/05 A3034 RMK AO2 SLP273 T00610050 $
KJBR 170953Z AUTO 03003KT 10SM CLR 06/04 A3032 RMK AO2 SLP265 T00610044 $
KJBR 170853Z AUTO 04003KT 10SM CLR 07/06 A3031 RMK AO2 SLP261 T00670056 56004 $
KJBR 170753Z AUTO 03003KT 10SM CLR 06/04 A3031 RMK AO2 SLP262 T00610044 $
KJBR 170653Z AUTO 00000KT 10SM CLR 07/05 A3031 RMK AO2 SLP262 T00720050 $
KJBR 170553Z AUTO 03003KT 10SM CLR 08/06 A3032 RMK AO2 SLP266 T00780056 10144 20061 402060061 50002 $
KJBR 170453Z AUTO 00000KT 10SM CLR 08/04 A3032 RMK AO2 SLP267 T00830044 $
KJBR 170353Z AUTO 00000KT 10SM CLR 09/07 A3032 RMK AO2 SLP267 T00940067 $
KJBR 170253Z AUTO 04003KT 10SM CLR 09/06 A3031 RMK AO2 SLP264 T00940061 51003 $
KJBR 170153Z AUTO 00000KT 10SM CLR 11/06 A3031 RMK AO2 SLP264 T01110061 $
KJBR 170053Z AUTO 00000KT 10SM CLR 11/07 A3031 RMK AO2 SLP262 T01110067 $
KJBR 162353Z AUTO 01003KT 10SM CLR 14/06 A3030 RMK AO2 SLP261 T01440056 10206 20144 53001 $
KJBR 162253Z AUTO 02006KT 10SM CLR 18/04 A3030 RMK AO2 SLP258 T01830044 $
KJBR 162153Z AUTO VRB04KT 10SM CLR 20/04 A3030 RMK AO2 SLP259 T02000044 $
KJBR 162053Z AUTO 03007G17KT 10SM CLR 20/04 A3030 RMK AO2 SLP258 T02000039 56025 $
KJBR 161953Z AUTO 01008G16KT 330V030 10SM CLR 20/04 A3032 RMK AO2 SLP264 T02000039 $
KJBR 161853Z AUTO 03011KT 10SM CLR 19/04 A3034 RMK AO2 SLP271 T01940044 $
KJBR 161753Z AUTO 05009G17KT 10SM CLR 18/05 A3037 RMK AO2 SLP283 T01830050 10189 20089 58011 $
KJBR 161653Z AUTO 05010G16KT 10SM CLR 17/06 A3040 RMK AO2 SLP293 T01720056 $
KJBR 161553Z AUTO 06014KT 10SM CLR 16/06 A3040 RMK AO2 SLP295 T01610061 $